sensor_id;sensor_type;location;lat;lon;timestamp;P1;durP1;ratioP1;P2;durP2;ratioP2
40555;SDS011;26250;45.422;11.100;2022-11-20T10:02:00;7.38;;;3.38;;
40555;SDS011;26250;45.422;11.100;2022-11-20T10:04:34;4.85;;;4.07;;
40555;SDS011;26250;45.422;11.100;2022-11-20T10:07:13;9.52;;;4.15;;
40555;SDS011;26250;45.422;11.100;2022-11-20T10:10:01;16.13;;;3.90;;
40555;SDS011;26250;45.422;11.100;2022-11-20T10:12:33;7.35;;;5.53;;
40555;SDS011;26250;45.422;11.100;2022-11-20T10:15:23;13.47;;;4.07;;
40555;SDS011;26250;45.422;11.100;2022-11-20T10:18:16;4.65;;;4.25;;
40555;SDS011;26250;45.422;11.100;2022-11-20T10:26:03;10.82;;;4.95;;
40555;SDS011;26250;45.422;11.100;2022-11-20T10:31:38;10.50;;;5.10;;
40555;SDS011;26250;45.422;11.100;2022-11-20T10:37:03;8.48;;;5.10;;
40555;SDS011;26250;45.422;11.100;2022-11-20T10:42:29;9.70;;;4.90;;
40555;SDS011;26250;45.422;11.100;2022-11-20T10:45:21;22.58;;;12.68;;
40555;SDS011;26250;45.422;11.100;2022-11-20T10:47:56;12.70;;;4.38;;
40555;SDS011;26250;45.422;11.100;2022-11-20T10:50:34;4.63;;;4.18;;
40555;SDS011;26250;45.422;11.100;2022-11-20T10:56:20;6.68;;;4.90;;
40555;SDS011;26250;45.422;11.100;2022-11-20T10:59:41;5.47;;;4.60;;
40555;SDS011;26250;45.422;11.100;2022-11-20T11:08:12;8.85;;;5.70;;
40555;SDS011;26250;45.422;11.100;2022-11-20T11:10:51;10.32;;;6.07;;
40555;SDS011;26250;45.422;11.100;2022-11-20T11:13:30;10.85;;;6.35;;
40555;SDS011;26250;45.422;11.100;2022-11-20T11:15:57;8.68;;;6.85;;
40555;SDS011;26250;45.422;11.100;2022-11-20T11:18:26;13.27;;;6.90;;
40555;SDS011;26250;45.422;11.100;2022-11-20T11:20:54;6.90;;;6.05;;
40555;SDS011;26250;45.422;11.100;2022-11-20T11:23:26;6.10;;;5.05;;
40555;SDS011;26250;45.422;11.100;2022-11-20T11:26:05;7.25;;;6.57;;
40555;SDS011;26250;45.422;11.100;2022-11-20T11:29:00;9.43;;;5.93;;
40555;SDS011;26250;45.422;11.100;2022-11-20T11:31:30;7.28;;;5.65;;
40555;SDS011;26250;45.422;11.100;2022-11-20T11:34:11;10.90;;;7.13;;
40555;SDS011;26250;45.422;11.100;2022-11-20T11:36:39;6.18;;;5.57;;
40555;SDS011;26250;45.422;11.100;2022-11-20T11:39:16;7.10;;;5.55;;
40555;SDS011;26250;45.422;11.100;2022-11-20T11:41:46;6.68;;;5.53;;
40555;SDS011;26250;45.422;11.100;2022-11-20T11:47:00;8.48;;;5.95;;
40555;SDS011;26250;45.422;11.100;2022-11-20T11:49:28;7.60;;;6.32;;
40555;SDS011;26250;45.422;11.100;2022-11-20T11:57:50;10.45;;;6.68;;
40555;SDS011;26250;45.422;11.100;2022-11-20T12:00:22;10.80;;;6.13;;
40555;SDS011;26250;45.422;11.100;2022-11-20T12:02:54;8.60;;;6.63;;
40555;SDS011;26250;45.422;11.100;2022-11-20T12:05:36;12.18;;;7.43;;
40555;SDS011;26250;45.422;11.100;2022-11-20T12:11:13;10.55;;;7.32;;
40555;SDS011;26250;45.422;11.100;2022-11-20T12:13:53;8.52;;;6.70;;
40555;SDS011;26250;45.422;11.100;2022-11-20T12:16:24;8.10;;;7.30;;
40555;SDS011;26250;45.422;11.100;2022-11-20T12:18:51;8.13;;;7.32;;
40555;SDS011;26250;45.422;11.100;2022-11-20T12:21:20;21.65;;;8.43;;
40555;SDS011;26250;45.422;11.100;2022-11-20T12:34:44;12.13;;;10.23;;
40555;SDS011;26250;45.422;11.100;2022-11-20T12:40:32;15.88;;;13.48;;
40555;SDS011;26250;45.422;11.100;2022-11-20T12:43:19;16.85;;;12.73;;
40555;SDS011;26250;45.422;11.100;2022-11-20T12:54:20;21.75;;;13.60;;
40555;SDS011;26250;45.422;11.100;2022-11-20T13:00:11;18.35;;;15.05;;
40555;SDS011;26250;45.422;11.100;2022-11-20T13:08:09;33.75;;;17.83;;
40555;SDS011;26250;45.422;11.100;2022-11-20T13:10:54;26.80;;;19.95;;
40555;SDS011;26250;45.422;11.100;2022-11-20T13:13:43;26.40;;;19.75;;
40555;SDS011;26250;45.422;11.100;2022-11-20T13:16:25;28.50;;;19.35;;
40555;SDS011;26250;45.422;11.100;2022-11-20T13:19:14;32.35;;;18.75;;
40555;SDS011;26250;45.422;11.100;2022-11-20T13:21:46;28.13;;;19.17;;
40555;SDS011;26250;45.422;11.100;2022-11-20T13:24:20;20.38;;;17.48;;
40555;SDS011;26250;45.422;11.100;2022-11-20T13:29:40;27.83;;;17.95;;
40555;SDS011;26250;45.422;11.100;2022-11-20T13:32:14;29.45;;;19.83;;
40555;SDS011;26250;45.422;11.100;2022-11-20T13:37:58;23.02;;;19.65;;
40555;SDS011;26250;45.422;11.100;2022-11-20T13:40:27;26.88;;;21.58;;
40555;SDS011;26250;45.422;11.100;2022-11-20T13:42:56;34.33;;;19.23;;
40555;SDS011;26250;45.422;11.100;2022-11-20T13:45:25;32.78;;;20.42;;
40555;SDS011;26250;45.422;11.100;2022-11-20T13:47:55;31.40;;;19.95;;
40555;SDS011;26250;45.422;11.100;2022-11-20T14:08:39;28.02;;;23.20;;
40555;SDS011;26250;45.422;11.100;2022-11-20T14:13:59;28.88;;;24.25;;
40555;SDS011;26250;45.422;11.100;2022-11-20T19:06:41;34.90;;;31.08;;
40555;SDS011;26250;45.422;11.100;2022-11-20T19:09:10;31.65;;;27.92;;
40555;SDS011;26250;45.422;11.100;2022-11-20T19:11:38;31.10;;;27.75;;
40555;SDS011;26250;45.422;11.100;2022-11-20T19:14:05;30.98;;;26.88;;
40555;SDS011;26250;45.422;11.100;2022-11-20T19:16:33;35.75;;;28.58;;
40555;SDS011;26250;45.422;11.100;2022-11-20T19:19:01;40.30;;;29.85;;
40555;SDS011;26250;45.422;11.100;2022-11-20T19:21:29;35.63;;;31.67;;
40555;SDS011;26250;45.422;11.100;2022-11-20T19:23:57;42.03;;;29.58;;
40555;SDS011;26250;45.422;11.100;2022-11-20T19:26:25;34.25;;;28.20;;
40555;SDS011;26250;45.422;11.100;2022-11-20T19:28:52;36.25;;;29.30;;
40555;SDS011;26250;45.422;11.100;2022-11-20T19:31:20;37.45;;;29.85;;
40555;SDS011;26250;45.422;11.100;2022-11-20T19:33:54;33.95;;;28.65;;
40555;SDS011;26250;45.422;11.100;2022-11-20T19:36:23;34.67;;;31.17;;
40555;SDS011;26250;45.422;11.100;2022-11-20T19:38:52;33.05;;;27.38;;
40555;SDS011;26250;45.422;11.100;2022-11-20T19:41:21;32.47;;;28.75;;
40555;SDS011;26250;45.422;11.100;2022-11-20T19:43:55;39.42;;;27.33;;
40555;SDS011;26250;45.422;11.100;2022-11-20T19:46:33;47.38;;;30.05;;
40555;SDS011;26250;45.422;11.100;2022-11-20T19:49:01;36.20;;;26.23;;
40555;SDS011;26250;45.422;11.100;2022-11-20T19:51:29;35.45;;;26.65;;
40555;SDS011;26250;45.422;11.100;2022-11-20T19:53:58;36.83;;;28.00;;
40555;SDS011;26250;45.422;11.100;2022-11-20T19:56:26;44.35;;;29.55;;
40555;SDS011;26250;45.422;11.100;2022-11-20T19:58:57;31.60;;;26.33;;
40555;SDS011;26250;45.422;11.100;2022-11-20T20:01:26;29.15;;;25.95;;
40555;SDS011;26250;45.422;11.100;2022-11-20T20:03:55;37.55;;;27.88;;
40555;SDS011;26250;45.422;11.100;2022-11-20T20:06:27;33.08;;;26.45;;
40555;SDS011;26250;45.422;11.100;2022-11-20T20:08:55;28.77;;;25.67;;
40555;SDS011;26250;45.422;11.100;2022-11-20T20:11:35;30.27;;;24.00;;
40555;SDS011;26250;45.422;11.100;2022-11-20T20:14:02;31.90;;;26.30;;
40555;SDS011;26250;45.422;11.100;2022-11-20T20:16:30;30.60;;;26.65;;
40555;SDS011;26250;45.422;11.100;2022-11-20T20:18:58;36.72;;;27.50;;
40555;SDS011;26250;45.422;11.100;2022-11-20T20:21:27;35.15;;;28.23;;
40555;SDS011;26250;45.422;11.100;2022-11-20T20:23:56;34.13;;;28.02;;
40555;SDS011;26250;45.422;11.100;2022-11-20T20:26:24;32.78;;;27.92;;
40555;SDS011;26250;45.422;11.100;2022-11-20T20:28:55;29.60;;;26.02;;
40555;SDS011;26250;45.422;11.100;2022-11-20T20:31:23;30.40;;;27.17;;
40555;SDS011;26250;45.422;11.100;2022-11-20T20:33:51;32.17;;;26.17;;
40555;SDS011;26250;45.422;11.100;2022-11-20T20:36:18;31.10;;;27.05;;
40555;SDS011;26250;45.422;11.100;2022-11-20T20:38:50;35.78;;;28.00;;
40555;SDS011;26250;45.422;11.100;2022-11-20T20:41:18;32.50;;;27.77;;
40555;SDS011;26250;45.422;11.100;2022-11-20T20:43:46;37.15;;;29.35;;
40555;SDS011;26250;45.422;11.100;2022-11-20T20:46:32;40.40;;;28.00;;
40555;SDS011;26250;45.422;11.100;2022-11-20T20:49:00;37.50;;;28.77;;
40555;SDS011;26250;45.422;11.100;2022-11-20T20:51:26;39.05;;;29.45;;
40555;SDS011;26250;45.422;11.100;2022-11-20T20:53:54;37.13;;;29.17;;
40555;SDS011;26250;45.422;11.100;2022-11-20T20:56:21;39.08;;;30.45;;
40555;SDS011;26250;45.422;11.100;2022-11-20T20:58:48;33.10;;;27.92;;
40555;SDS011;26250;45.422;11.100;2022-11-20T21:01:15;22.80;;;20.48;;
40555;SDS011;26250;45.422;11.100;2022-11-20T21:03:43;27.83;;;23.27;;
40555;SDS011;26250;45.422;11.100;2022-11-20T21:06:10;30.30;;;24.63;;
40555;SDS011;26250;45.422;11.100;2022-11-20T21:08:38;32.97;;;29.48;;
40555;SDS011;26250;45.422;11.100;2022-11-20T21:11:10;33.97;;;30.55;;
40555;SDS011;26250;45.422;11.100;2022-11-20T21:13:39;37.03;;;32.25;;
40555;SDS011;26250;45.422;11.100;2022-11-20T21:16:08;41.63;;;30.75;;
40555;SDS011;26250;45.422;11.100;2022-11-20T21:18:35;35.08;;;28.90;;
40555;SDS011;26250;45.422;11.100;2022-11-20T21:21:03;31.25;;;28.02;;
40555;SDS011;26250;45.422;11.100;2022-11-20T21:23:49;37.08;;;30.08;;
40555;SDS011;26250;45.422;11.100;2022-11-20T21:26:18;41.75;;;31.05;;
40555;SDS011;26250;45.422;11.100;2022-11-20T21:28:46;43.70;;;32.70;;
40555;SDS011;26250;45.422;11.100;2022-11-20T21:31:14;36.75;;;29.40;;
40555;SDS011;26250;45.422;11.100;2022-11-20T21:33:47;34.40;;;28.65;;
40555;SDS011;26250;45.422;11.100;2022-11-20T21:36:16;30.30;;;27.25;;
40555;SDS011;26250;45.422;11.100;2022-11-20T21:38:45;26.08;;;23.52;;
40555;SDS011;26250;45.422;11.100;2022-11-20T21:41:13;27.35;;;24.05;;
40555;SDS011;26250;45.422;11.100;2022-11-20T21:43:40;32.05;;;25.33;;
40555;SDS011;26250;45.422;11.100;2022-11-20T21:46:12;30.48;;;24.85;;
40555;SDS011;26250;45.422;11.100;2022-11-20T21:48:41;32.70;;;27.75;;
40555;SDS011;26250;45.422;11.100;2022-11-20T21:51:21;29.50;;;26.30;;
40555;SDS011;26250;45.422;11.100;2022-11-20T21:53:51;26.98;;;24.10;;
40555;SDS011;26250;45.422;11.100;2022-11-20T21:56:20;32.92;;;25.52;;
40555;SDS011;26250;45.422;11.100;2022-11-20T21:58:51;30.20;;;26.77;;
40555;SDS011;26250;45.422;11.100;2022-11-20T22:03:54;39.92;;;26.02;;
40555;SDS011;26250;45.422;11.100;2022-11-20T22:06:28;38.90;;;28.42;;
40555;SDS011;26250;45.422;11.100;2022-11-20T22:09:01;35.28;;;28.58;;
40555;SDS011;26250;45.422;11.100;2022-11-20T22:11:28;34.17;;;28.45;;
40555;SDS011;26250;45.422;11.100;2022-11-20T22:13:58;39.25;;;27.83;;
